Time;durP1;ratioP1;P1;durP2;ratioP2;P2;SDS_P1;SDS_P2;PMS_P1;PMS_P2;Temp;Humidity;BMP_temperature;BMP_pressure;BME280_temperature;BME280_humidity;BME280_pressure;Samples;Min_cycle;Max_cycle;Signal;HPM_P1;HPM_P2
2023/07/02 00:00:11;;;;;;;20.77;19.20;;;;;;;16.38;100.00;100018.91;5013679;28;20508;-41
2023/07/02 00:02:39;;;;;;;21.13;19.20;;;;;;;16.42;100.00;100015.47;5013966;28;20429;-43
2023/07/02 00:05:07;;;;;;;20.53;18.87;;;;;;;16.44;100.00;99999.06;5014107;28;20438;-43
2023/07/02 00:07:37;;;;;;;20.73;19.00;;;;;;;16.46;100.00;100002.31;5013221;28;21009;-43
2023/07/02 00:10:06;;;;;;;20.30;18.77;;;;;;;16.49;100.00;100007.19;5012358;28;20457;-44
2023/07/02 00:12:33;;;;;;;20.83;18.33;;;;;;;16.48;100.00;100001.00;5012610;28;20919;-46
2023/07/02 00:15:03;;;;;;;20.97;19.17;;;;;;;16.48;100.00;100009.09;5013316;28;20848;-44
2023/07/02 00:17:31;;;;;;;20.70;18.80;;;;;;;16.41;100.00;100010.31;5013735;28;20436;-46
2023/07/02 00:20:02;;;;;;;21.47;19.60;;;;;;;16.38;100.00;100017.03;5012874;28;20882;-43
2023/07/02 00:22:31;;;;;;;19.53;17.87;;;;;;;16.34;100.00;100010.50;5013306;28;20507;-46
2023/07/02 00:25:00;;;;;;;27.10;18.37;;;;;;;16.31;100.00;100008.31;5011514;28;20433;-43
2023/07/02 00:27:28;;;;;;;20.30;18.60;;;;;;;16.30;100.00;100003.22;5011847;28;20479;-46
2023/07/02 00:29:56;;;;;;;20.53;18.53;;;;;;;16.28;100.00;100008.00;5012138;28;20472;-44
2023/07/02 00:32:25;;;;;;;20.57;18.67;;;;;;;16.26;100.00;100004.78;5012722;28;20840;-42
2023/07/02 00:34:53;;;;;;;20.83;19.20;;;;;;;16.23;100.00;99991.81;5013576;28;20528;-45
2023/07/02 00:37:21;;;;;;;24.33;19.63;;;;;;;16.17;100.00;99998.19;5013412;28;20476;-44
2023/07/02 00:39:48;;;;;;;20.30;18.70;;;;;;;16.18;100.00;100007.91;5012388;28;20523;-46
2023/07/02 00:42:16;;;;;;;19.37;18.17;;;;;;;16.18;100.00;100006.03;5013012;28;20826;-44
2023/07/02 00:44:45;;;;;;;20.70;18.60;;;;;;;16.19;100.00;100001.47;5013178;28;20433;-44
2023/07/02 00:47:13;;;;;;;22.27;19.90;;;;;;;16.18;100.00;100011.41;5013236;28;20480;-42
2023/07/02 00:49:43;;;;;;;23.40;21.20;;;;;;;16.21;100.00;100008.22;5004884;28;20470;-43
2023/07/02 00:52:11;;;;;;;22.07;20.40;;;;;;;16.25;100.00;100003.13;5009511;28;20485;-42
2023/07/02 00:54:40;;;;;;;21.10;19.23;;;;;;;16.20;100.00;100001.22;4992411;28;20449;-42
2023/07/02 00:57:08;;;;;;;22.47;20.40;;;;;;;16.24;100.00;100006.91;4993068;28;20441;-41
2023/07/02 00:59:37;;;;;;;23.77;21.80;;;;;;;16.26;100.00;100015.53;5001470;28;20963;-44
2023/07/02 01:02:06;;;;;;;23.27;21.37;;;;;;;16.27;100.00;100014.47;5011974;28;20511;-44
2023/07/02 01:04:34;;;;;;;23.13;21.20;;;;;;;16.27;100.00;100011.78;5012622;28;20455;-43
2023/07/02 01:07:08;;;;;;;23.80;21.97;;;;;;;16.27;100.00;100019.84;5012824;28;20571;-41
2023/07/02 01:09:36;;;;;;;22.53;20.83;;;;;;;16.25;100.00;100006.63;5012560;28;20461;-41
2023/07/02 01:12:08;;;;;;;23.10;20.87;;;;;;;16.25;100.00;100011.19;5012797;28;20519;-41
2023/07/02 01:14:39;;;;;;;22.83;20.80;;;;;;;16.25;100.00;100014.72;5012773;28;20483;-43
2023/07/02 01:17:07;;;;;;;22.23;20.53;;;;;;;16.24;100.00;100009.59;5012637;28;20425;-44
2023/07/02 01:19:45;;;;;;;21.40;19.77;;;;;;;16.18;100.00;100003.34;5002368;28;20466;-43
2023/07/02 01:22:13;;;;;;;21.33;19.50;;;;;;;16.14;100.00;99990.63;5010783;28;20487;-42
2023/07/02 01:24:41;;;;;;;20.33;18.80;;;;;;;16.07;100.00;99996.19;4996972;28;20848;-43
2023/07/02 01:27:10;;;;;;;22.83;20.57;;;;;;;16.03;100.00;99997.78;4992106;28;20560;-42
2023/07/02 01:29:38;;;;;;;22.80;20.73;;;;;;;15.99;100.00;99999.34;5001652;28;20539;-43
2023/07/02 01:32:06;;;;;;;22.80;20.57;;;;;;;15.93;100.00;100001.16;5011040;28;20524;-44
2023/07/02 01:34:35;;;;;;;22.80;20.97;;;;;;;15.87;100.00;100004.81;5011449;28;20796;-42
2023/07/02 01:37:05;;;;;;;22.63;20.97;;;;;;;15.87;100.00;99998.63;5011329;28;20464;-42
2023/07/02 01:39:33;;;;;;;23.10;21.10;;;;;;;15.87;100.00;100004.81;5010144;28;20535;-43
2023/07/02 01:42:09;;;;;;;23.13;21.03;;;;;;;15.87;100.00;99998.63;5011127;28;20935;-43
2023/07/02 01:44:37;;;;;;;22.10;20.47;;;;;;;15.84;100.00;100005.31;5011884;28;20807;-45
2023/07/02 01:47:05;;;;;;;22.70;20.70;;;;;;;15.81;100.00;100008.50;5011996;28;20483;-46
2023/07/02 01:49:33;;;;;;;22.97;20.67;;;;;;;15.81;100.00;100002.31;5011500;28;20515;-44
2023/07/02 01:52:01;;;;;;;22.50;20.70;;;;;;;15.78;100.00;100006.31;5012113;28;20436;-44
2023/07/02 01:54:32;;;;;;;23.47;21.50;;;;;;;15.79;100.00;100007.13;5012304;28;20491;-44
2023/07/02 01:57:00;;;;;;;24.80;22.03;;;;;;;15.79;100.00;100024.09;5011577;28;20472;-45
2023/07/02 01:59:28;;;;;;;21.97;19.97;;;;;;;15.75;100.00;100017.56;5011451;28;20515;-42
2023/07/02 02:01:56;;;;;;;25.30;22.03;;;;;;;15.74;100.00;100015.13;5011022;28;20469;-43
2023/07/02 02:04:24;;;;;;;23.90;21.50;;;;;;;15.73;100.00;100014.31;5010657;28;20831;-42
2023/07/02 02:06:53;;;;;;;23.33;21.13;;;;;;;15.71;100.00;100018.31;5011383;28;20799;-43
2023/07/02 02:09:21;;;;;;;22.50;20.60;;;;;;;15.72;100.00;100011.88;5010390;28;20839;-44
2023/07/02 02:11:52;;;;;;;22.07;20.10;;;;;;;15.69;100.00;100015.88;5010157;28;21143;-42
2023/07/02 02:14:21;;;;;;;24.47;21.97;;;;;;;15.64;100.00;100014.97;5010300;28;20435;-41
2023/07/02 02:16:49;;;;;;;21.83;20.40;;;;;;;15.59;100.00;100017.59;5011236;28;20441;-43
2023/07/02 02:19:17;;;;;;;22.40;20.50;;;;;;;15.56;100.00;100018.09;5011286;28;20496;-42
2023/07/02 02:21:45;;;;;;;22.27;20.40;;;;;;;15.49;100.00;100018.25;5011491;28;20946;-44
2023/07/02 02:24:13;;;;;;;22.00;19.93;;;;;;;15.45;100.00;100027.84;5003607;28;20883;-45
2023/07/02 02:26:41;;;;;;;24.23;21.83;;;;;;;15.38;100.00;100017.25;5011923;28;20469;-43
2023/07/02 02:29:10;;;;;;;24.60;22.00;;;;;;;15.33;100.00;100013.69;5011205;28;20476;-43
2023/07/02 02:31:38;;;;;;;24.27;21.97;;;;;;;15.28;100.00;100025.16;5011314;28;20540;-45
2023/07/02 02:34:06;;;;;;;23.43;21.23;;;;;;;15.23;100.00;100019.69;5011661;28;20516;-43
2023/07/02 02:36:33;;;;;;;23.43;20.97;;;;;;;15.20;100.00;100016.72;5010607;28;20437;-41
2023/07/02 02:39:01;;;;;;;23.20;21.10;;;;;;;15.15;100.00;100019.28;5010800;28;20452;-41
2023/07/02 02:41:29;;;;;;;24.10;22.00;;;;;;;15.12;100.00;100020.59;5010358;28;20523;-43
2023/07/02 02:43:57;;;;;;;23.77;21.40;;;;;;;15.13;100.00;100024.09;5010905;28;20441;-44
2023/07/02 02:46:26;;;;;;;24.40;20.97;;;;;;;15.10;100.00;100020.03;5010451;28;20421;-43
2023/07/02 02:48:54;;;;;;;24.33;21.43;;;;;;;15.09;100.00;100022.94;5013172;28;20899;-44
2023/07/02 02:51:21;;;;;;;24.33;21.90;;;;;;;15.06;100.00;100020.75;5013851;28;20466;-41
2023/07/02 02:53:50;;;;;;;23.90;21.50;;;;;;;15.04;100.00;100017.50;5014840;28;20465;-43
2023/07/02 02:56:18;;;;;;;27.87;22.70;;;;;;;15.09;100.00;100012.19;5014378;28;20934;-41
2023/07/02 02:58:46;;;;;;;23.03;20.93;;;;;;;15.12;100.00;100015.22;5012760;28;20988;-42
2023/07/02 03:01:14;;;;;;;29.47;23.30;;;;;;;15.15;100.00;100012.06;5013921;28;20560;-43
2023/07/02 03:03:45;;;;;;;24.73;22.43;;;;;;;15.18;100.00;100018.78;5014205;28;20854;-44
2023/07/02 03:06:15;;;;;;;23.83;21.57;;;;;;;15.23;100.00;100010.84;5015281;28;20429;-46
2023/07/02 03:08:43;;;;;;;26.80;21.43;;;;;;;15.25;100.00;100011.41;5013825;28;20459;-41
2023/07/02 03:11:11;;;;;;;23.80;21.80;;;;;;;15.29;100.00;100015.25;5015364;28;20587;-46
2023/07/02 03:13:38;;;;;;;23.80;21.50;;;;;;;15.32;100.00;100012.84;5014194;28;20428;-45
2023/07/02 03:16:06;;;;;;;24.67;22.07;;;;;;;15.32;100.00;100006.69;5013796;28;20433;-43
2023/07/02 03:18:35;;;;;;;25.73;23.10;;;;;;;15.34;100.00;100012.63;5012916;28;20435;-45
2023/07/02 03:21:05;;;;;;;23.03;21.10;;;;;;;15.36;100.00;100010.50;5012761;28;20453;-42
2023/07/02 03:23:32;;;;;;;22.77;20.90;;;;;;;15.43;100.00;100011.16;5013231;28;20872;-46
2023/07/02 03:26:00;;;;;;;23.37;20.97;;;;;;;15.46;100.00;100002.59;5013288;28;20535;-46
2023/07/02 03:28:28;;;;;;;24.10;21.93;;;;;;;15.48;100.00;100013.94;5013237;28;20982;-42
2023/07/02 03:30:55;;;;;;;23.63;21.60;;;;;;;15.53;100.00;99997.88;5033318;28;20962;-43
2023/07/02 03:33:23;;;;;;;26.63;22.10;;;;;;;15.76;100.00;99997.69;5032992;28;20424;-44
2023/07/02 03:35:51;;;;;;;25.33;22.80;;;;;;;15.99;100.00;99997.47;5033273;28;20865;-45
2023/07/02 03:38:20;;;;;;;25.57;22.07;;;;;;;16.10;100.00;99997.59;5033433;28;20439;-45
2023/07/02 03:40:48;;;;;;;27.10;22.70;;;;;;;16.16;100.00;99989.31;5032516;28;20985;-45
2023/07/02 03:43:16;;;;;;;24.33;21.80;;;;;;;16.13;100.00;99997.09;5033736;28;20436;-49
2023/07/02 03:45:44;;;;;;;25.50;22.97;;;;;;;16.12;100.00;100001.66;5033828;28;20475;-42
2023/07/02 03:48:12;;;;;;;24.30;21.87;;;;;;;16.07;100.00;100004.25;5034241;28;20439;-44
2023/07/02 03:50:39;;;;;;;28.67;22.90;;;;;;;16.02;100.00;99999.66;5033577;28;20468;-47
2023/07/02 03:53:07;;;;;;;27.77;23.27;;;;;;;15.97;100.00;100004.97;5033891;28;20429;-47
2023/07/02 03:55:36;;;;;;;25.00;22.90;;;;;;;15.95;100.00;100020.53;5032737;28;20934;-47
2023/07/02 03:58:04;;;;;;;25.73;23.03;;;;;;;15.79;100.00;100032.16;5031270;28;20857;-46
2023/07/02 04:00:32;;;;;;;24.97;22.57;;;;;;;15.63;100.00;100046.41;5001523;28;20461;-46
2023/07/02 04:03:00;;;;;;;24.73;22.47;;;;;;;15.46;100.00;100062.53;5002200;28;20440;-48
2023/07/02 04:05:27;;;;;;;25.10;22.80;;;;;;;15.31;100.00;100058.78;5012552;28;20506;-46
2023/07/02 04:07:55;;;;;;;29.23;23.40;;;;;;;15.32;100.00;100065.78;5012478;28;20860;-44
2023/07/02 04:10:23;;;;;;;24.87;22.63;;;;;;;15.09;100.00;100056.00;5012175;28;21055;-44
2023/07/02 04:12:52;;;;;;;25.23;23.13;;;;;;;14.98;100.00;100064.13;5012130;28;20440;-42
2023/07/02 04:15:20;;;;;;;23.13;21.83;;;;;;;15.07;100.00;100062.66;5013131;28;20460;-45
2023/07/02 04:17:48;;;;;;;22.53;20.80;;;;;;;15.16;100.00;100058.53;5013602;28;20429;-45
2023/07/02 04:20:15;;;;;;;23.13;21.10;;;;;;;15.36;100.00;100048.09;5013390;28;20971;-47
2023/07/02 04:22:43;;;;;;;22.20;20.40;;;;;;;15.53;100.00;100043.56;5005397;28;20433;-44
2023/07/02 04:25:14;;;;;;;22.70;20.73;;;;;;;15.70;100.00;100046.25;4994236;28;20442;-44
2023/07/02 04:28:04;;;;;;;22.93;21.23;;;;;;;15.84;100.00;100037.59;4993991;28;20935;-43
2023/07/02 04:30:32;;;;;;;24.13;21.77;;;;;;;15.91;100.00;100034.72;4993587;28;20493;-44
2023/07/02 04:33:00;;;;;;;25.60;23.17;;;;;;;15.95;100.00;100033.16;4993869;28;20496;-45
2023/07/02 04:35:28;;;;;;;24.77;22.30;;;;;;;15.97;100.00;100039.94;4990692;28;20444;-43
2023/07/02 04:37:57;;;;;;;24.77;22.47;;;;;;;16.00;100.00;100042.13;4993098;28;20430;-45
2023/07/02 04:40:25;;;;;;;22.80;20.70;;;;;;;16.05;100.00;100042.19;4991658;28;20473;-45
2023/07/02 04:42:57;;;;;;;24.63;22.13;;;;;;;16.18;100.00;100034.81;4992748;28;20429;-46
2023/07/02 04:45:31;;;;;;;24.70;22.27;;;;;;;16.34;100.00;100036.59;4993752;28;20473;-45
2023/07/02 04:48:00;;;;;;;24.97;22.47;;;;;;;16.53;100.00;100032.53;4993313;28;20421;-43
2023/07/02 04:50:28;;;;;;;24.77;22.60;;;;;;;16.66;100.00;100032.19;4992141;28;20484;-46
2023/07/02 04:52:56;;;;;;;23.63;21.50;;;;;;;16.69;100.00;100033.56;4992626;28;20441;-48
2023/07/02 04:55:24;;;;;;;25.17;22.83;;;;;;;16.66;100.00;100026.78;4992965;28;20500;-43
2023/07/02 04:57:52;;;;;;;24.03;22.20;;;;;;;16.98;100.00;100024.13;4992440;28;20434;-49
2023/07/02 05:00:22;;;;;;;22.97;21.17;;;;;;;18.46;100.00;100022.91;4991624;28;20497;-47
2023/07/02 05:02:51;;;;;;;21.77;19.97;;;;;;;19.83;100.00;100013.81;4992625;28;20437;-46
2023/07/02 05:05:19;;;;;;;21.07;19.37;;;;;;;20.91;100.00;100005.75;4992139;28;20532;-47
2023/07/02 05:07:47;;;;;;;20.73;18.67;;;;;;;21.65;100.00;99993.75;4991805;28;20434;-43
2023/07/02 05:10:15;;;;;;;19.13;17.20;;;;;;;22.32;100.00;100005.47;4969297;28;20528;-45
2023/07/02 05:12:43;;;;;;;18.80;17.07;;;;;;;22.89;100.00;100012.56;4992840;28;20998;-48
2023/07/02 05:15:12;;;;;;;18.83;17.03;;;;;;;23.41;97.89;100015.03;4991406;28;20503;-47
2023/07/02 05:17:40;;;;;;;19.00;17.30;;;;;;;22.92;89.89;100009.25;4993057;28;20439;-44
2023/07/02 05:20:11;;;;;;;18.07;16.73;;;;;;;21.46;96.41;100019.97;4992768;28;20461;-50
2023/07/02 05:22:39;;;;;;;19.07;17.47;;;;;;;20.85;100.00;100022.31;4992128;28;20503;-43
2023/07/02 05:25:07;;;;;;;21.10;15.40;;;;;;;20.30;100.00;100020.75;4991409;28;20441;-47
2023/07/02 05:27:35;;;;;;;15.63;14.17;;;;;;;20.13;100.00;100015.63;4992370;28;20544;-47
2023/07/02 05:30:03;;;;;;;21.13;14.63;;;;;;;19.94;100.00;100009.19;4991844;28;20469;-43
2023/07/02 05:32:31;;;;;;;17.27;13.83;;;;;;;19.72;100.00;100012.22;4991635;28;20433;-45
2023/07/02 05:34:59;;;;;;;15.67;14.13;;;;;;;19.56;100.00;100017.94;4992494;28;20804;-43
2023/07/02 05:37:28;;;;;;;21.90;14.57;;;;;;;19.30;100.00;100020.63;4990907;28;20442;-47
2023/07/02 05:39:56;;;;;;;17.20;15.23;;;;;;;20.21;100.00;100006.13;4991979;28;20470;-45
2023/07/02 05:42:23;;;;;;;14.93;13.50;;;;;;;21.46;100.00;100017.25;4992095;28;20488;-46
2023/07/02 05:44:51;;;;;;;15.33;13.17;;;;;;;22.84;100.00;100009.94;4992600;28;20520;-44
2023/07/02 05:47:19;;;;;;;14.73;13.23;;;;;;;23.35;97.17;100010.75;4992589;28;20573;-43
2023/07/02 05:49:47;;;;;;;12.83;11.83;;;;;;;23.97;100.00;100005.81;4991306;28;20847;-46
2023/07/02 05:52:15;;;;;;;13.93;12.20;;;;;;;24.56;92.88;100000.22;4992453;28;20433;-45
2023/07/02 05:54:44;;;;;;;12.47;11.17;;;;;;;24.66;84.15;100008.19;4992446;28;20500;-50
2023/07/02 05:57:12;;;;;;;13.47;12.10;;;;;;;25.70;76.39;100007.84;4990671;28;20469;-45
2023/07/02 05:59:40;;;;;;;15.90;12.83;;;;;;;24.21;77.07;100020.88;4990920;28;20935;-48
2023/07/02 06:02:08;;;;;;;15.97;12.13;;;;;;;23.63;85.83;100028.75;4991303;28;20441;-46
2023/07/02 06:04:36;;;;;;;14.60;12.90;;;;;;;22.76;88.26;100021.47;4990320;28;20433;-45
2023/07/02 06:07:04;;;;;;;16.93;12.77;;;;;;;21.95;89.71;100033.34;4991698;28;20468;-43
2023/07/02 06:09:32;;;;;;;13.03;11.63;;;;;;;21.06;87.38;100045.47;4991066;28;20485;-45
2023/07/02 06:12:01;;;;;;;12.53;11.47;;;;;;;20.37;90.19;100038.28;4991982;28;20429;-44
2023/07/02 06:14:29;;;;;;;11.10;10.30;;;;;;;19.88;94.77;100031.94;4992197;28;20465;-49
2023/07/02 06:16:59;;;;;;;11.30;10.40;;;;;;;19.69;98.59;100031.72;4992047;28;20521;-45
2023/07/02 06:19:26;;;;;;;11.93;10.70;;;;;;;19.76;100.00;100026.03;4991774;28;20476;-47
2023/07/02 06:21:54;;;;;;;11.40;10.30;;;;;;;19.76;100.00;100020.63;5006124;28;20919;-50
2023/07/02 06:24:22;;;;;;;12.07;10.67;;;;;;;19.94;100.00;100033.56;5008770;28;20428;-46
2023/07/02 06:26:50;;;;;;;14.80;10.50;;;;;;;20.18;100.00;100029.16;5015337;28;20510;-45
2023/07/02 06:29:19;;;;;;;13.37;9.67;;;;;;;20.58;100.00;100027.38;5014520;28;20498;-45
2023/07/02 06:31:47;;;;;;;11.00;9.80;;;;;;;21.13;98.09;100027.03;5014842;28;20428;-47
2023/07/02 06:34:15;;;;;;;11.60;10.30;;;;;;;22.43;86.70;100029.47;5014101;28;20436;-43
2023/07/02 06:36:43;;;;;;;15.83;10.17;;;;;;;23.77;82.51;100015.19;5014418;28;20843;-49
2023/07/02 06:39:11;;;;;;;10.70;9.30;;;;;;;24.41;75.74;100021.53;5013605;28;20443;-48
2023/07/02 06:41:39;;;;;;;11.90;9.17;;;;;;;25.04;75.51;100021.50;5013314;28;21005;-47
2023/07/02 06:44:07;;;;;;;11.83;9.27;;;;;;;26.03;72.04;100026.59;5013232;28;20487;-45
2023/07/02 06:46:36;;;;;;;12.07;9.67;;;;;;;26.83;59.15;100015.25;5012814;28;20432;-43
2023/07/02 06:49:04;;;;;;;12.77;8.67;;;;;;;26.65;63.12;100035.47;5012587;28;20855;-48
2023/07/02 06:51:33;;;;;;;9.13;8.23;;;;;;;25.27;64.14;100042.22;5012527;28;20503;-44
2023/07/02 06:54:01;;;;;;;8.30;7.50;;;;;;;23.93;65.36;100061.97;5013079;28;20423;-46
2023/07/02 06:56:28;;;;;;;10.43;8.20;;;;;;;22.78;72.18;100074.44;5013436;28;20460;-44
2023/07/02 06:58:56;;;;;;;12.33;8.63;;;;;;;21.74;84.91;100062.59;5013200;28;20471;-49
2023/07/02 07:01:24;;;;;;;11.80;7.87;;;;;;;21.10;91.69;100062.84;5012321;28;20468;-45
2023/07/02 07:03:53;;;;;;;13.87;8.50;;;;;;;20.84;94.27;100050.53;5013731;28;20479;-43
2023/07/02 07:06:21;;;;;;;11.70;8.63;;;;;;;20.49;92.79;100051.50;5014212;28;20467;-44
2023/07/02 07:08:49;;;;;;;8.10;7.33;;;;;;;20.60;91.97;100049.56;5013677;28;20882;-46
2023/07/02 07:11:16;;;;;;;9.33;8.03;;;;;;;21.18;89.03;100050.56;5012878;28;20483;-44
2023/07/02 07:13:44;;;;;;;9.67;7.63;;;;;;;22.46;84.04;100050.63;5012945;28;21150;-46
2023/07/02 07:16:12;;;;;;;11.73;8.53;;;;;;;23.48;76.48;100069.84;5012679;28;20440;-44
2023/07/02 07:18:40;;;;;;;10.43;8.07;;;;;;;24.29;70.48;100053.94;5014020;28;20586;-51
2023/07/02 07:21:09;;;;;;;13.00;8.70;;;;;;;24.86;68.63;100057.94;5012055;28;20464;-48
2023/07/02 07:23:37;;;;;;;11.53;7.33;;;;;;;25.51;62.36;100059.09;5006398;28;20430;-47
2023/07/02 07:26:05;;;;;;;11.77;7.47;;;;;;;26.08;62.07;100061.97;4994189;28;20484;-51
2023/07/02 07:28:33;;;;;;;13.20;7.90;;;;;;;26.69;56.68;100053.66;4992784;28;20491;-46
2023/07/02 07:31:01;;;;;;;12.20;8.40;;;;;;;26.79;54.97;100066.25;4992600;28;20535;-46
2023/07/02 07:33:29;;;;;;;10.90;8.40;;;;;;;27.03;53.69;100055.63;4991932;28;20473;-48
2023/07/02 07:35:57;;;;;;;11.70;8.87;;;;;;;26.75;54.70;100052.38;4993263;28;20433;-48
2023/07/02 07:38:26;;;;;;;9.67;7.90;;;;;;;26.08;56.82;100043.66;4993687;28;20437;-46
2023/07/02 07:40:55;;;;;;;11.27;6.77;;;;;;;24.74;60.74;100056.53;4992786;28;20809;-44
2023/07/02 07:43:24;;;;;;;7.77;7.03;;;;;;;23.24;67.19;100077.28;4992561;28;20908;-45
2023/07/02 07:45:51;;;;;;;15.73;7.00;;;;;;;22.09;75.90;100075.00;4993821;28;20445;-45
2023/07/02 07:48:19;;;;;;;6.70;5.63;;;;;;;22.21;83.16;100085.47;4993119;28;20492;-44
2023/07/02 07:50:47;;;;;;;7.63;6.87;;;;;;;22.33;78.99;100091.28;4992855;28;20473;-50
2023/07/02 07:53:15;;;;;;;9.83;6.43;;;;;;;22.73;75.82;100079.94;4992596;28;20468;-44
2023/07/02 07:55:44;;;;;;;9.80;7.50;;;;;;;23.07;76.39;100082.44;4991958;28;20425;-43
2023/07/02 07:58:12;;;;;;;8.90;6.60;;;;;;;23.49;74.12;100081.56;4992946;28;20437;-47
2023/07/02 08:00:40;;;;;;;6.77;5.93;;;;;;;23.77;67.77;100088.69;4991642;28;20978;-45
2023/07/02 08:03:08;;;;;;;7.33;6.17;;;;;;;23.76;65.77;100094.44;4993792;28;20426;-50
2023/07/02 08:05:36;;;;;;;6.13;5.63;;;;;;;24.05;64.03;100086.81;4993309;28;20437;-51
2023/07/02 08:08:04;;;;;;;8.30;6.20;;;;;;;24.07;64.14;100088.13;4994467;28;20441;-51
2023/07/02 08:10:31;;;;;;;10.17;6.47;;;;;;;24.05;64.79;100093.06;4994000;28;20481;-46
2023/07/02 08:13:00;;;;;;;8.70;6.27;;;;;;;24.00;65.13;100087.72;4994298;28;20989;-46
2023/07/02 08:15:28;;;;;;;13.60;7.20;;;;;;;23.88;64.84;100075.69;4995190;28;20433;-43
2023/07/02 08:17:58;;;;;;;16.77;6.90;;;;;;;23.49;66.06;100098.69;4997387;28;20492;-44
2023/07/02 08:20:26;;;;;;;13.20;7.50;;;;;;;23.42;68.58;100100.16;5000476;28;20970;-45
2023/07/02 08:22:54;;;;;;;11.37;6.80;;;;;;;22.94;70.77;100096.78;5009787;28;20500;-42
2023/07/02 08:25:22;;;;;;;9.07;7.13;;;;;;;22.79;72.02;100097.00;5017459;28;20476;-47
2023/07/02 08:27:51;;;;;;;9.60;6.77;;;;;;;22.45;72.19;100091.69;5017607;28;20440;-44
2023/07/02 08:30:20;;;;;;;10.07;6.17;;;;;;;22.79;75.39;100084.19;5017943;28;20496;-42
2023/07/02 08:32:48;;;;;;;9.93;6.37;;;;;;;22.73;73.09;100093.53;5017321;28;20469;-44
2023/07/02 08:35:16;;;;;;;17.13;6.80;;;;;;;22.58;76.75;100099.13;5018090;28;21065;-42
2023/07/02 08:37:43;;;;;;;14.73;6.80;;;;;;;22.75;72.58;100093.25;5017315;28;20428;-47
2023/07/02 08:40:17;;;;;;;10.23;6.90;;;;;;;23.09;69.80;100094.66;5016220;28;20471;-42
2023/07/02 08:42:46;;;;;;;12.23;5.97;;;;;;;22.88;69.14;100090.59;5016565;28;20456;-42
2023/07/02 08:45:15;;;;;;;13.87;7.10;;;;;;;23.11;70.59;100091.66;5016444;28;20436;-41
2023/07/02 08:47:45;;;;;;;11.03;7.13;;;;;;;22.59;71.50;100085.25;5016946;28;20474;-44
2023/07/02 08:50:14;;;;;;;8.70;6.67;;;;;;;22.15;75.13;100100.19;5016318;28;20472;-42
2023/07/02 08:52:42;;;;;;;11.30;7.60;;;;;;;22.22;74.89;100106.88;5017267;28;20522;-46
2023/07/02 08:55:10;;;;;;;11.40;7.60;;;;;;;21.85;78.51;100093.94;5017523;28;20436;-43
2023/07/02 08:57:38;;;;;;;8.77;6.73;;;;;;;22.16;80.56;100099.88;5016919;28;20811;-44
2023/07/02 09:00:10;;;;;;;13.30;6.97;;;;;;;21.72;88.05;100102.75;5017348;28;20787;-42
2023/07/02 09:02:37;;;;;;;11.17;7.70;;;;;;;20.88;99.20;100122.84;5016118;28;20425;-43
2023/07/02 09:05:07;;;;;;;11.17;8.27;;;;;;;20.29;100.00;100117.41;5016958;28;21156;-43
2023/07/02 09:07:45;;;;;;;18.77;9.13;;;;;;;19.95;100.00;100126.38;5016983;28;20436;-42
2023/07/02 09:10:12;;;;;;;15.27;8.40;;;;;;;19.74;100.00;100129.09;5015786;28;20456;-46
2023/07/02 09:12:40;;;;;;;15.90;7.90;;;;;;;19.43;100.00;100127.47;5017496;28;20472;-44
2023/07/02 09:15:08;;;;;;;17.53;8.03;;;;;;;19.16;100.00;100122.28;5016278;28;20905;-45
2023/07/02 09:17:37;;;;;;;22.00;8.93;;;;;;;19.86;100.00;100135.03;5016928;28;20428;-44
2023/07/02 09:20:08;;;;;;;12.10;8.40;;;;;;;20.38;100.00;100121.16;5016041;28;20542;-43
2023/07/02 09:22:37;;;;;;;15.07;7.50;;;;;;;20.63;100.00;100116.75;5009376;28;20460;-41
2023/07/02 09:25:05;;;;;;;14.13;7.77;;;;;;;20.98;100.00;100121.97;5016187;28;20503;-43
2023/07/02 09:27:37;;;;;;;9.00;6.80;;;;;;;21.49;100.00;100120.59;5016604;28;20444;-43
2023/07/02 09:30:09;;;;;;;18.13;7.27;;;;;;;21.80;98.70;100117.63;5017762;28;20460;-45
2023/07/02 09:32:37;;;;;;;15.17;7.40;;;;;;;21.83;95.03;100130.63;5016524;28;20480;-45
2023/07/02 09:35:08;;;;;;;11.40;7.13;;;;;;;22.26;89.55;100142.44;5016655;28;20425;-45
2023/07/02 09:37:37;;;;;;;12.07;7.43;;;;;;;22.46;81.49;100142.22;5016954;28;20468;-44
2023/07/02 09:40:08;;;;;;;7.27;6.00;;;;;;;22.30;75.56;100147.03;5017070;28;20990;-45
2023/07/02 09:42:39;;;;;;;8.43;4.80;;;;;;;21.99;72.20;100145.69;5015616;28;20428;-40
2023/07/02 09:45:10;;;;;;;7.47;5.00;;;;;;;22.31;70.66;100145.13;5016702;28;20429;-41
2023/07/02 09:47:44;;;;;;;11.97;5.20;;;;;;;22.45;70.31;100143.31;5017130;28;20436;-43
2023/07/02 09:50:15;;;;;;;10.47;5.00;;;;;;;22.27;70.03;100154.94;5015611;28;20498;-44
2023/07/02 09:52:45;;;;;;;10.67;5.77;;;;;;;22.40;71.20;100146.88;5015331;28;20526;-41
2023/07/02 09:55:15;;;;;;;8.03;5.20;;;;;;;22.11;71.69;100142.59;5016538;28;20436;-43
2023/07/02 09:57:44;;;;;;;9.83;5.87;;;;;;;21.97;67.79;100132.41;5016128;28;20491;-40
2023/07/02 10:00:14;;;;;;;9.80;5.37;;;;;;;21.94;65.84;100143.84;5014479;28;20456;-41
2023/07/02 10:02:43;;;;;;;11.37;6.13;;;;;;;22.34;64.71;100134.47;5015738;28;20431;-43
2023/07/02 10:05:11;;;;;;;8.03;5.53;;;;;;;22.58;63.46;100143.41;5015953;28;20799;-45
2023/07/02 10:07:40;;;;;;;8.50;4.13;;;;;;;22.71;62.01;100133.78;5016990;28;20436;-44
2023/07/02 10:10:08;;;;;;;7.80;4.50;;;;;;;22.95;62.03;100141.91;5016183;28;20469;-45
2023/07/02 10:12:47;;;;;;;9.20;4.40;;;;;;;22.60;57.30;100162.16;5017016;28;20542;-42
2023/07/02 10:15:25;;;;;;;8.00;4.97;;;;;;;22.79;60.26;100157.59;5016250;28;20444;-44
2023/07/02 10:17:58;;;;;;;9.50;5.20;;;;;;;23.22;61.49;100152.13;5016322;28;20428;-42
2023/07/02 10:20:34;;;;;;;12.67;6.20;;;;;;;23.30;62.56;100157.72;5015477;28;20456;-41
2023/07/02 10:23:04;;;;;;;10.40;6.27;;;;;;;22.98;65.99;100150.28;5007195;28;20452;-43
2023/07/02 10:25:34;;;;;;;9.90;5.23;;;;;;;23.06;63.98;100168.66;5015723;28;20436;-48
2023/07/02 10:28:14;;;;;;;6.13;4.30;;;;;;;23.55;64.91;100168.28;5016019;28;20463;-41
2023/07/02 10:30:43;;;;;;;10.77;5.00;;;;;;;23.67;61.73;100168.63;5015569;28;20997;-43
2023/07/02 10:33:12;;;;;;;12.87;5.03;;;;;;;23.82;61.59;100164.84;5016221;28;20468;-43
2023/07/02 10:35:42;;;;;;;9.47;4.57;;;;;;;24.00;59.02;100174.06;5015985;28;20934;-44
2023/07/02 10:38:16;;;;;;;8.67;5.17;;;;;;;24.17;56.76;100168.88;5015464;28;20428;-42
2023/07/02 10:40:44;;;;;;;6.93;4.07;;;;;;;24.08;55.01;100176.09;5015301;28;20464;-44
2023/07/02 10:43:12;;;;;;;10.70;4.80;;;;;;;24.26;57.35;100167.09;5015235;28;20821;-43
2023/07/02 10:45:41;;;;;;;7.67;4.23;;;;;;;24.37;57.47;100171.22;5016111;28;20490;-43
2023/07/02 10:48:10;;;;;;;11.60;4.63;;;;;;;24.05;56.99;100179.41;5014462;28;20428;-46
2023/07/02 10:50:38;;;;;;;7.80;4.87;;;;;;;23.30;58.90;100192.28;5014350;28;20870;-41
2023/07/02 10:53:06;;;;;;;9.00;5.00;;;;;;;22.99;60.97;100192.72;5015042;28;20460;-41
2023/07/02 10:55:35;;;;;;;9.43;5.00;;;;;;;22.90;61.81;100190.94;5014958;28;20433;-47
2023/07/02 10:58:05;;;;;;;9.60;4.93;;;;;;;23.43;64.69;100200.56;5014776;28;20455;-44
2023/07/02 11:00:33;;;;;;;10.40;5.77;;;;;;;23.11;60.89;100195.00;5014368;28;20542;-47
2023/07/02 11:03:01;;;;;;;11.90;4.70;;;;;;;23.29;62.42;100204.28;5014713;28;20455;-44
2023/07/02 11:05:29;;;;;;;12.80;5.27;;;;;;;22.31;60.67;100178.50;5014936;28;20443;-44
2023/07/02 11:08:09;;;;;;;11.60;5.07;;;;;;;22.12;61.80;100201.25;5014938;28;20529;-45
2023/07/02 11:10:38;;;;;;;10.10;4.80;;;;;;;21.53;65.77;100208.44;5017216;28;20492;-44
2023/07/02 11:13:15;;;;;;;13.40;5.73;;;;;;;22.03;68.21;100209.19;5018844;28;20472;-46
2023/07/02 11:15:45;;;;;;;12.77;6.10;;;;;;;22.09;71.05;100204.53;5018225;28;20634;-45